createdAt,value
2019-03-08T00:02:41.813Z,89.10
2019-03-08T00:07:37.578Z,89.80
2019-03-08T00:12:34.573Z,90.20
2019-03-08T00:17:30.392Z,90.70
2019-03-08T00:22:27.965Z,90.80
2019-03-08T00:27:23.838Z,91.40
2019-03-08T00:32:19.669Z,91.90
2019-03-08T00:37:15.575Z,92.40
2019-03-08T00:42:11.314Z,93.00
2019-03-08T00:47:07.150Z,93.20
2019-03-08T00:52:02.855Z,93.40
2019-03-08T00:56:58.668Z,93.70
2019-03-08T01:01:54.397Z,93.30
2019-03-08T01:06:50.189Z,94.00
2019-03-08T01:11:46.145Z,94.10
2019-03-08T01:16:42.003Z,94.30
2019-03-08T01:21:37.734Z,94.80
2019-03-08T01:26:33.601Z,95.20
2019-03-08T01:31:29.295Z,95.50
2019-03-08T01:36:25.226Z,96.00
2019-03-08T01:41:20.947Z,96.80
2019-03-08T01:46:16.860Z,97.40
2019-03-08T01:51:12.647Z,97.50
2019-03-08T01:56:08.311Z,97.70
2019-03-08T02:01:04.304Z,98.20
2019-03-08T02:06:00.145Z,98.60
2019-03-08T02:10:55.856Z,98.70
2019-03-08T02:15:51.565Z,98.80
2019-03-08T02:20:48.659Z,99.40
2019-03-08T02:25:45.676Z,99.20
2019-03-08T02:30:41.858Z,99.50
2019-03-08T02:35:37.596Z,99.60
2019-03-08T02:40:37.441Z,99.50
2019-03-08T02:45:33.259Z,99.60
2019-03-08T02:50:28.965Z,99.90
2019-03-08T02:55:24.801Z,99.90
2019-03-08T03:00:20.666Z,99.90
2019-03-08T03:05:17.626Z,99.90
2019-03-08T03:10:14.138Z,99.90
2019-03-08T03:15:10.280Z,99.90
2019-03-08T03:20:07.227Z,99.90
2019-03-08T03:25:02.974Z,99.90
2019-03-08T03:29:58.961Z,99.90
2019-03-08T03:34:54.724Z,99.90
2019-03-08T03:39:50.549Z,99.90
2019-03-08T03:44:46.725Z,99.90
2019-03-08T03:49:42.392Z,99.90
2019-03-08T03:54:38.281Z,99.90
2019-03-08T03:59:34.046Z,99.90
2019-03-08T04:04:29.937Z,99.90
2019-03-08T04:09:25.686Z,99.90
2019-03-08T04:14:22.533Z,99.90
2019-03-08T04:19:18.128Z,99.90
2019-03-08T04:24:13.762Z,99.90
2019-03-08T04:29:09.452Z,99.90
2019-03-08T04:34:05.156Z,99.90
2019-03-08T04:39:00.883Z,99.90
2019-03-08T04:43:58.236Z,99.90
2019-03-08T04:48:54.345Z,99.90
2019-03-08T04:53:50.035Z,99.90
2019-03-08T04:58:45.801Z,99.90
2019-03-08T05:03:41.798Z,99.90
2019-03-08T05:08:37.555Z,99.90
2019-03-08T05:13:34.528Z,99.90
2019-03-08T05:18:30.408Z,99.90
2019-03-08T05:23:26.097Z,99.90
2019-03-08T05:28:21.876Z,99.90
2019-03-08T05:33:17.598Z,99.90
2019-03-08T05:38:13.397Z,99.90
2019-03-08T05:43:09.196Z,99.90
2019-03-08T05:48:05.128Z,99.90
2019-03-08T05:53:00.823Z,99.90
2019-03-08T05:57:56.666Z,99.90
2019-03-08T06:02:52.595Z,99.90
2019-03-08T06:07:49.935Z,99.90
2019-03-08T06:12:50.519Z,99.90
2019-03-08T06:17:46.421Z,99.90
2019-03-08T06:22:42.710Z,99.90
2019-03-08T06:27:38.598Z,99.90
2019-03-08T06:32:34.516Z,99.90
2019-03-08T06:37:30.275Z,99.90
2019-03-08T06:42:25.990Z,99.90
2019-03-08T06:47:21.822Z,99.90
2019-03-08T06:52:17.556Z,99.90
2019-03-08T06:57:13.355Z,99.90
2019-03-08T07:02:09.199Z,99.90
2019-03-08T07:07:04.957Z,99.90
2019-03-08T07:12:00.723Z,99.90
2019-03-08T07:16:56.534Z,99.90
2019-03-08T07:21:58.658Z,99.90
2019-03-08T07:27:19.709Z,99.90
2019-03-08T07:32:33.157Z,99.90
2019-03-08T07:37:35.538Z,99.90
2019-03-08T07:42:59.353Z,99.70
2019-03-08T07:48:16.824Z,99.90
2019-03-08T07:53:23.081Z,98.70
2019-03-08T07:58:40.594Z,97.80
2019-03-08T08:03:55.297Z,96.20
2019-03-08T08:09:07.123Z,95.30
2019-03-08T08:14:22.080Z,94.10
2019-03-08T08:19:36.670Z,93.10
2019-03-08T08:24:51.682Z,93.00
2019-03-08T08:30:10.220Z,91.60
2019-03-08T08:35:32.075Z,90.80
2019-03-08T08:40:49.844Z,88.80
2019-03-08T08:46:03.564Z,88.80
2019-03-08T08:51:18.348Z,80.80
2019-03-08T08:56:36.037Z,81.10
2019-03-08T09:01:30.756Z,72.10
2019-03-08T09:06:23.702Z,70.80
2019-03-08T09:11:45.954Z,68.30
2019-03-08T09:16:57.709Z,68.20
2019-03-08T09:22:12.274Z,68.90
2019-03-08T09:27:27.058Z,67.90
2019-03-08T09:32:31.686Z,68.00
2019-03-08T09:37:37.137Z,68.30
2019-03-08T09:42:57.711Z,69.20
2019-03-08T09:48:12.072Z,68.00
2019-03-08T09:53:26.784Z,68.40
2019-03-08T09:58:44.529Z,68.60
2019-03-08T10:03:57.966Z,69.70
2019-03-08T10:09:09.504Z,69.70
2019-03-08T10:14:14.664Z,69.30
2019-03-08T10:19:37.894Z,68.90
2019-03-08T10:24:52.481Z,68.50
2019-03-08T10:30:06.129Z,67.00
2019-03-08T10:35:24.243Z,67.00
2019-03-08T10:40:35.679Z,67.50
2019-03-08T10:45:53.090Z,66.10
2019-03-08T10:51:09.126Z,64.40
2019-03-08T10:56:24.215Z,62.10
2019-03-08T11:01:29.192Z,62.80
2019-03-08T11:06:44.865Z,60.10
2019-03-08T11:12:02.259Z,58.60
2019-03-08T11:17:16.192Z,56.30
2019-03-08T11:22:26.701Z,57.20
2019-03-08T11:27:40.196Z,57.00
2019-03-08T11:32:48.656Z,56.80
2019-03-08T11:37:53.006Z,56.90
2019-03-08T11:43:01.379Z,55.60
2019-03-08T11:48:17.206Z,55.90
2019-03-08T11:53:41.191Z,56.00
2019-03-08T11:59:04.890Z,57.10
2019-03-08T12:04:15.563Z,57.00
2019-03-08T12:09:37.508Z,57.00
2019-03-08T12:14:38.670Z,56.60
2019-03-08T12:19:43.034Z,56.80
2019-03-08T12:25:01.160Z,57.60
2019-03-08T12:30:21.526Z,58.10
2019-03-08T12:35:24.523Z,58.10
2019-03-08T12:40:29.039Z,58.40
2019-03-08T12:45:43.843Z,58.30
2019-03-08T12:51:07.304Z,57.90
2019-03-08T12:56:33.955Z,54.00
2019-03-08T13:01:42.386Z,51.20
2019-03-08T13:06:49.192Z,49.40
2019-03-08T13:11:45.443Z,48.50
2019-03-08T13:16:41.313Z,46.80
2019-03-08T13:21:37.043Z,46.50
2019-03-08T13:26:32.879Z,45.00
2019-03-08T13:31:28.625Z,45.70
2019-03-08T13:36:24.440Z,46.40
2019-03-08T13:41:20.362Z,48.00
2019-03-08T13:46:17.681Z,47.70
2019-03-08T13:51:15.013Z,47.60
2019-03-08T13:56:10.853Z,48.90
2019-03-08T14:01:06.598Z,50.40
2019-03-08T14:06:03.740Z,50.70
2019-03-08T14:10:59.516Z,50.90
2019-03-08T14:15:55.844Z,51.30
2019-03-08T14:20:51.592Z,52.30
2019-03-08T14:25:47.403Z,52.30
2019-03-08T14:30:57.889Z,52.00
2019-03-08T14:35:50.002Z,53.10
2019-03-08T14:41:10.819Z,52.40
2019-03-08T14:46:25.425Z,52.50
2019-03-08T14:51:21.224Z,52.80
2019-03-08T14:56:17.010Z,53.10
2019-03-08T15:01:12.773Z,53.80
2019-03-08T15:06:08.849Z,56.90
2019-03-08T15:11:04.556Z,56.70
2019-03-08T15:16:02.097Z,57.40
2019-03-08T15:20:58.550Z,57.90
2019-03-08T15:25:55.589Z,58.40
2019-03-08T15:30:51.367Z,58.20
2019-03-08T15:35:47.192Z,57.80
2019-03-08T15:40:42.927Z,58.00
2019-03-08T15:45:40.153Z,58.60
2019-03-08T15:50:36.914Z,58.30
2019-03-08T15:55:32.799Z,57.70
2019-03-08T16:00:28.964Z,58.10
2019-03-08T16:05:28.385Z,57.10
2019-03-08T16:10:22.540Z,59.20
2019-03-08T16:15:18.576Z,59.40
2019-03-08T16:20:15.624Z,60.20
2019-03-08T16:25:11.837Z,61.50
2019-03-08T16:30:15.952Z,63.00
2019-03-08T16:35:11.502Z,63.90
2019-03-08T16:40:13.343Z,64.50
2019-03-08T16:45:24.407Z,67.50
2019-03-08T16:50:38.122Z,69.40
2019-03-08T16:55:50.967Z,70.50
2019-03-08T17:01:14.835Z,71.20
2019-03-08T17:06:32.808Z,72.90
2019-03-08T17:11:38.304Z,74.30
2019-03-08T17:17:02.310Z,75.30
2019-03-08T17:22:22.859Z,76.50
2019-03-08T17:27:40.318Z,78.00
2019-03-08T17:33:04.038Z,79.00
2019-03-08T17:38:18.255Z,80.60
2019-03-08T17:43:30.357Z,82.10
2019-03-08T17:48:43.117Z,83.00
2019-03-08T17:54:00.849Z,84.10
2019-03-08T17:59:15.517Z,86.50
2019-03-08T18:04:30.157Z,87.60
2019-03-08T18:09:37.555Z,88.50
2019-03-08T18:14:42.863Z,89.30
2019-03-08T18:20:00.577Z,89.90
2019-03-08T18:25:12.104Z,90.20
2019-03-08T18:30:34.331Z,90.70
2019-03-08T18:35:47.523Z,91.10
2019-03-08T18:41:05.206Z,91.60
2019-03-08T18:46:35.105Z,92.10
2019-03-08T18:51:48.673Z,92.20
2019-03-08T18:57:06.391Z,92.30
2019-03-08T19:02:24.802Z,93.20
2019-03-08T19:07:38.535Z,94.30
2019-03-08T19:12:52.144Z,94.50
2019-03-08T19:18:16.208Z,94.90
2019-03-08T19:23:38.024Z,95.10
2019-03-08T19:28:56.419Z,95.40
2019-03-08T19:34:16.385Z,95.90
2019-03-08T19:39:36.650Z,96.20
2019-03-08T19:44:56.933Z,96.20
2019-03-08T19:50:12.299Z,96.10
2019-03-08T19:55:25.663Z,96.60
2019-03-08T20:00:41.856Z,97.20
2019-03-08T20:06:06.061Z,97.00
2019-03-08T20:11:12.001Z,97.00
2019-03-08T20:16:25.906Z,96.90
2019-03-08T20:21:38.211Z,97.20
2019-03-08T20:26:51.932Z,97.70
2019-03-08T20:32:05.345Z,98.50
2019-03-08T20:37:11.322Z,99.20
2019-03-08T20:42:35.088Z,99.60
2019-03-08T20:47:32.761Z,99.90
2019-03-08T20:52:28.780Z,94.80
2019-03-08T20:57:27.647Z,93.10
2019-03-08T21:02:24.634Z,94.40
2019-03-08T21:07:21.873Z,96.00
2019-03-08T21:12:22.627Z,97.00
2019-03-08T21:17:26.679Z,99.90
2019-03-08T21:22:23.012Z,99.90
2019-03-08T21:27:19.232Z,99.90
2019-03-08T21:32:16.544Z,99.90
2019-03-08T21:37:12.357Z,99.90
2019-03-08T21:42:08.230Z,99.90
2019-03-08T21:47:04.265Z,99.90
2019-03-08T21:51:59.950Z,99.90
2019-03-08T21:56:56.299Z,99.90
2019-03-08T22:01:52.044Z,99.90
2019-03-08T22:06:47.812Z,99.90
2019-03-08T22:11:44.711Z,99.90
2019-03-08T22:16:40.579Z,99.90
2019-03-08T22:21:36.658Z,99.90
2019-03-08T22:26:32.517Z,99.90
2019-03-08T22:31:28.225Z,99.90
2019-03-08T22:36:26.080Z,99.90
2019-03-08T22:41:21.797Z,99.90
2019-03-08T22:46:17.566Z,99.90
2019-03-08T22:51:13.410Z,99.90
2019-03-08T22:56:09.285Z,99.90
2019-03-08T23:01:13.737Z,99.90
2019-03-08T23:06:11.107Z,99.90
2019-03-08T23:11:06.851Z,99.90
2019-03-08T23:16:02.772Z,99.90
2019-03-08T23:20:58.618Z,99.90
2019-03-08T23:25:54.382Z,99.90
2019-03-08T23:30:52.199Z,99.90
2019-03-08T23:35:48.023Z,99.90
2019-03-08T23:40:43.908Z,99.90
2019-03-08T23:45:39.779Z,99.90
2019-03-08T23:50:35.705Z,99.90
2019-03-08T23:55:31.563Z,99.90
